sensor_id;sensor_type;location;lat;lon;timestamp;temperature;humidity
13205;DHT22;6667;52.634;9.226;2023-04-03T07:53:52;9.40;99.90
13205;DHT22;6667;52.634;9.226;2023-04-03T07:56:19;9.30;99.90
13205;DHT22;6667;52.634;9.226;2023-04-03T07:58:46;9.50;99.90
13205;DHT22;6667;52.634;9.226;2023-04-03T08:01:12;9.90;99.90
13205;DHT22;6667;52.634;9.226;2023-04-03T08:03:39;10.40;99.90
13205;DHT22;6667;52.634;9.226;2023-04-03T08:06:07;10.10;99.90
13205;DHT22;6667;52.634;9.226;2023-04-03T08:08:34;10.00;99.90
13205;DHT22;6667;52.634;9.226;2023-04-03T08:11:03;9.00;99.90
13205;DHT22;6667;52.634;9.226;2023-04-03T08:13:31;8.20;99.90
13205;DHT22;6667;52.634;9.226;2023-04-03T08:16:07;9.20;99.90
13205;DHT22;6667;52.634;9.226;2023-04-03T08:18:34;9.30;99.90
13205;DHT22;6667;52.634;9.226;2023-04-03T08:21:04;10.00;99.90
13205;DHT22;6667;52.634;9.226;2023-04-03T08:23:31;10.50;99.90
13205;DHT22;6667;52.634;9.226;2023-04-03T08:25:57;10.90;99.90
13205;DHT22;6667;52.634;9.226;2023-04-03T08:28:25;10.60;99.90
13205;DHT22;6667;52.634;9.226;2023-04-03T08:30:52;10.50;99.90
13205;DHT22;6667;52.634;9.226;2023-04-03T08:33:19;11.00;99.90
13205;DHT22;6667;52.634;9.226;2023-04-03T08:35:46;11.00;99.90
13205;DHT22;6667;52.634;9.226;2023-04-03T08:38:12;10.90;99.90
13205;DHT22;6667;52.634;9.226;2023-04-03T08:40:39;9.60;99.90
13205;DHT22;6667;52.634;9.226;2023-04-03T08:43:24;9.70;99.90
13205;DHT22;6667;52.634;9.226;2023-04-03T08:45:59;9.20;99.90
13205;DHT22;6667;52.634;9.226;2023-04-03T08:48:30;9.30;99.90
13205;DHT22;6667;52.634;9.226;2023-04-03T08:51:00;9.10;99.90
13205;DHT22;6667;52.634;9.226;2023-04-03T08:53:30;10.40;99.90
13205;DHT22;6667;52.634;9.226;2023-04-03T08:55:58;10.80;99.90
13205;DHT22;6667;52.634;9.226;2023-04-03T08:58:30;9.80;99.90
13205;DHT22;6667;52.634;9.226;2023-04-03T09:01:02;9.80;99.90
13205;DHT22;6667;52.634;9.226;2023-04-03T09:03:31;9.40;99.90
13205;DHT22;6667;52.634;9.226;2023-04-03T09:06:02;9.70;99.90
13205;DHT22;6667;52.634;9.226;2023-04-03T09:08:31;10.90;99.90
13205;DHT22;6667;52.634;9.226;2023-04-03T09:11:06;10.90;99.90
13205;DHT22;6667;52.634;9.226;2023-04-03T09:13:39;10.60;99.90
13205;DHT22;6667;52.634;9.226;2023-04-03T09:16:20;10.50;99.90
13205;DHT22;6667;52.634;9.226;2023-04-03T09:18:53;11.00;99.90
13205;DHT22;6667;52.634;9.226;2023-04-03T09:21:26;10.90;99.90
13205;DHT22;6667;52.634;9.226;2023-04-03T09:23:59;10.30;99.90
13205;DHT22;6667;52.634;9.226;2023-04-03T09:26:28;11.50;99.90
13205;DHT22;6667;52.634;9.226;2023-04-03T09:28:59;11.40;99.90
13205;DHT22;6667;52.634;9.226;2023-04-03T09:31:32;12.30;99.90
13205;DHT22;6667;52.634;9.226;2023-04-03T09:34:03;11.30;99.90
13205;DHT22;6667;52.634;9.226;2023-04-03T09:36:43;11.40;99.90
13205;DHT22;6667;52.634;9.226;2023-04-03T09:39:12;12.10;99.90
13205;DHT22;6667;52.634;9.226;2023-04-03T09:41:40;10.70;99.90
13205;DHT22;6667;52.634;9.226;2023-04-03T09:44:20;10.80;99.90
13205;DHT22;6667;52.634;9.226;2023-04-03T09:46:49;10.90;99.90
13205;DHT22;6667;52.634;9.226;2023-04-03T09:49:17;11.20;99.90
13205;DHT22;6667;52.634;9.226;2023-04-03T09:51:44;12.80;99.90
13205;DHT22;6667;52.634;9.226;2023-04-03T09:54:34;12.70;99.90
13205;DHT22;6667;52.634;9.226;2023-04-03T09:57:08;13.10;99.90
13205;DHT22;6667;52.634;9.226;2023-04-03T09:59:38;13.10;99.90
13205;DHT22;6667;52.634;9.226;2023-04-03T10:02:23;12.80;99.90
13205;DHT22;6667;52.634;9.226;2023-04-03T10:04:55;13.00;99.90
13205;DHT22;6667;52.634;9.226;2023-04-03T10:07:28;12.50;99.90
13205;DHT22;6667;52.634;9.226;2023-04-03T10:09:56;12.90;99.90
13205;DHT22;6667;52.634;9.226;2023-04-03T10:12:24;14.10;99.90
13205;DHT22;6667;52.634;9.226;2023-04-03T10:14:55;12.80;99.90
13205;DHT22;6667;52.634;9.226;2023-04-03T10:17:32;13.60;99.90
13205;DHT22;6667;52.634;9.226;2023-04-03T10:20:07;11.80;99.90
13205;DHT22;6667;52.634;9.226;2023-04-03T10:22:42;11.80;99.90
13205;DHT22;6667;52.634;9.226;2023-04-03T10:25:20;12.30;99.90
13205;DHT22;6667;52.634;9.226;2023-04-03T10:27:55;11.80;99.90
13205;DHT22;6667;52.634;9.226;2023-04-03T10:30:33;12.00;99.90
13205;DHT22;6667;52.634;9.226;2023-04-03T10:33:20;12.90;99.90
13205;DHT22;6667;52.634;9.226;2023-04-03T10:35:59;12.90;99.90
13205;DHT22;6667;52.634;9.226;2023-04-03T10:38:40;12.90;99.90
13205;DHT22;6667;52.634;9.226;2023-04-03T10:41:15;13.00;99.90
13205;DHT22;6667;52.634;9.226;2023-04-03T10:43:50;12.50;99.90
13205;DHT22;6667;52.634;9.226;2023-04-03T10:46:26;12.70;99.90
13205;DHT22;6667;52.634;9.226;2023-04-03T10:49:08;12.50;99.90
13205;DHT22;6667;52.634;9.226;2023-04-03T10:51:41;12.50;99.90
13205;DHT22;6667;52.634;9.226;2023-04-03T10:54:12;11.70;99.90
13205;DHT22;6667;52.634;9.226;2023-04-03T10:56:41;11.00;99.90
13205;DHT22;6667;52.634;9.226;2023-04-03T10:59:21;10.30;99.90
13205;DHT22;6667;52.634;9.226;2023-04-03T11:01:54;11.40;99.90
13205;DHT22;6667;52.634;9.226;2023-04-03T11:04:26;11.90;99.90
13205;DHT22;6667;52.634;9.226;2023-04-03T11:07:01;12.10;99.90
13205;DHT22;6667;52.634;9.226;2023-04-03T11:09:31;12.20;99.90
13205;DHT22;6667;52.634;9.226;2023-04-03T11:12:03;11.60;99.90
13205;DHT22;6667;52.634;9.226;2023-04-03T11:14:32;12.40;99.90
13205;DHT22;6667;52.634;9.226;2023-04-03T11:17:08;12.60;99.90
13205;DHT22;6667;52.634;9.226;2023-04-03T11:19:45;12.20;99.90
13205;DHT22;6667;52.634;9.226;2023-04-03T11:22:22;12.30;99.90
13205;DHT22;6667;52.634;9.226;2023-04-03T11:24:57;12.30;99.90
13205;DHT22;6667;52.634;9.226;2023-04-03T11:27:37;11.60;99.90
13205;DHT22;6667;52.634;9.226;2023-04-03T11:30:07;11.40;99.90
13205;DHT22;6667;52.634;9.226;2023-04-03T11:32:53;12.20;99.90
13205;DHT22;6667;52.634;9.226;2023-04-03T11:35:26;12.00;99.90
13205;DHT22;6667;52.634;9.226;2023-04-03T11:37:54;11.90;99.90
13205;DHT22;6667;52.634;9.226;2023-04-03T11:40:25;13.60;99.90
13205;DHT22;6667;52.634;9.226;2023-04-03T11:42:55;14.10;99.90
13205;DHT22;6667;52.634;9.226;2023-04-03T11:45:45;13.30;99.90
13205;DHT22;6667;52.634;9.226;2023-04-03T11:48:48;12.00;99.90
13205;DHT22;6667;52.634;9.226;2023-04-03T11:51:47;11.70;99.90
13205;DHT22;6667;52.634;9.226;2023-04-03T11:54:46;11.60;99.90
13205;DHT22;6667;52.634;9.226;2023-04-03T11:57:46;11.10;99.90
13205;DHT22;6667;52.634;9.226;2023-04-03T12:00:49;11.50;99.90
13205;DHT22;6667;52.634;9.226;2023-04-03T12:12:32;11.00;99.90
13205;DHT22;6667;52.634;9.226;2023-04-03T12:15:24;11.20;99.90
13205;DHT22;6667;52.634;9.226;2023-04-03T12:17:53;11.30;99.90
13205;DHT22;6667;52.634;9.226;2023-04-03T12:20:55;11.50;99.90
13205;DHT22;6667;52.634;9.226;2023-04-03T12:23:28;11.80;99.90
13205;DHT22;6667;52.634;9.226;2023-04-03T12:26:03;11.50;99.90
13205;DHT22;6667;52.634;9.226;2023-04-03T12:28:41;11.90;99.90
13205;DHT22;6667;52.634;9.226;2023-04-03T12:31:11;12.00;99.90
13205;DHT22;6667;52.634;9.226;2023-04-03T12:33:51;12.00;99.90
13205;DHT22;6667;52.634;9.226;2023-04-03T12:36:30;12.10;99.90
13205;DHT22;6667;52.634;9.226;2023-04-03T12:39:13;12.00;99.90
13205;DHT22;6667;52.634;9.226;2023-04-03T12:41:50;11.80;99.90
13205;DHT22;6667;52.634;9.226;2023-04-03T12:44:40;12.30;99.90
13205;DHT22;6667;52.634;9.226;2023-04-03T12:47:23;13.00;99.90
13205;DHT22;6667;52.634;9.226;2023-04-03T12:49:53;12.80;99.90
13205;DHT22;6667;52.634;9.226;2023-04-03T12:52:30;12.50;99.90
13205;DHT22;6667;52.634;9.226;2023-04-03T12:54:59;12.40;99.90
13205;DHT22;6667;52.634;9.226;2023-04-03T12:57:31;12.60;99.90
13205;DHT22;6667;52.634;9.226;2023-04-03T12:59:58;12.60;99.90
13205;DHT22;6667;52.634;9.226;2023-04-03T13:02:28;12.90;99.90
13205;DHT22;6667;52.634;9.226;2023-04-03T13:04:57;12.60;99.90
13205;DHT22;6667;52.634;9.226;2023-04-03T13:07:28;12.50;99.90
13205;DHT22;6667;52.634;9.226;2023-04-03T13:09:59;11.50;99.90
13205;DHT22;6667;52.634;9.226;2023-04-03T13:12:27;11.60;99.90
13205;DHT22;6667;52.634;9.226;2023-04-03T13:14:57;11.40;99.90
13205;DHT22;6667;52.634;9.226;2023-04-03T13:17:25;11.00;99.90
13205;DHT22;6667;52.634;9.226;2023-04-03T13:19:54;10.90;99.90
13205;DHT22;6667;52.634;9.226;2023-04-03T13:22:30;11.10;99.90
13205;DHT22;6667;52.634;9.226;2023-04-03T13:24:59;11.40;99.90
13205;DHT22;6667;52.634;9.226;2023-04-03T13:27:30;11.60;99.90
13205;DHT22;6667;52.634;9.226;2023-04-03T13:30:00;11.00;99.90
13205;DHT22;6667;52.634;9.226;2023-04-03T13:32:30;11.20;99.90
13205;DHT22;6667;52.634;9.226;2023-04-03T13:34:57;11.70;99.90
13205;DHT22;6667;52.634;9.226;2023-04-03T13:37:27;12.10;99.90
13205;DHT22;6667;52.634;9.226;2023-04-03T13:40:00;12.10;99.90
13205;DHT22;6667;52.634;9.226;2023-04-03T13:42:29;11.50;99.90
13205;DHT22;6667;52.634;9.226;2023-04-03T13:45:17;11.40;99.90
13205;DHT22;6667;52.634;9.226;2023-04-03T13:47:47;11.00;99.90
13205;DHT22;6667;52.634;9.226;2023-04-03T13:50:17;11.10;99.90
13205;DHT22;6667;52.634;9.226;2023-04-03T13:52:52;11.30;99.90
13205;DHT22;6667;52.634;9.226;2023-04-03T13:55:22;11.40;99.90
13205;DHT22;6667;52.634;9.226;2023-04-03T13:57:56;11.30;99.90
13205;DHT22;6667;52.634;9.226;2023-04-03T14:00:36;11.10;99.90
13205;DHT22;6667;52.634;9.226;2023-04-03T14:03:12;10.70;99.90
13205;DHT22;6667;52.634;9.226;2023-04-03T14:05:39;10.50;99.90
13205;DHT22;6667;52.634;9.226;2023-04-03T14:08:06;10.70;99.90
13205;DHT22;6667;52.634;9.226;2023-04-03T14:10:35;10.80;99.90
13205;DHT22;6667;52.634;9.226;2023-04-03T14:13:02;11.20;99.90
13205;DHT22;6667;52.634;9.226;2023-04-03T14:15:31;11.00;99.90
13205;DHT22;6667;52.634;9.226;2023-04-03T14:17:58;11.20;99.90
13205;DHT22;6667;52.634;9.226;2023-04-03T14:20:26;11.50;99.90
13205;DHT22;6667;52.634;9.226;2023-04-03T14:22:54;10.70;99.90
13205;DHT22;6667;52.634;9.226;2023-04-03T14:25:21;10.60;99.90
13205;DHT22;6667;52.634;9.226;2023-04-03T14:27:50;10.30;99.90
13205;DHT22;6667;52.634;9.226;2023-04-03T14:30:20;10.70;99.90
13205;DHT22;6667;52.634;9.226;2023-04-03T14:32:50;10.40;99.90
13205;DHT22;6667;52.634;9.226;2023-04-03T14:35:18;10.30;99.90
13205;DHT22;6667;52.634;9.226;2023-04-03T14:37:46;9.90;99.90
13205;DHT22;6667;52.634;9.226;2023-04-03T14:40:18;10.00;99.90
13205;DHT22;6667;52.634;9.226;2023-04-03T14:42:45;10.00;99.90
13205;DHT22;6667;52.634;9.226;2023-04-03T14:45:14;10.30;99.90
13205;DHT22;6667;52.634;9.226;2023-04-03T14:47:44;10.70;99.90
13205;DHT22;6667;52.634;9.226;2023-04-03T14:50:17;10.70;99.90
13205;DHT22;6667;52.634;9.226;2023-04-03T14:52:47;10.80;99.90
13205;DHT22;6667;52.634;9.226;2023-04-03T14:55:16;10.20;99.90
13205;DHT22;6667;52.634;9.226;2023-04-03T14:57:43;10.10;99.90
13205;DHT22;6667;52.634;9.226;2023-04-03T15:00:14;10.10;99.90
13205;DHT22;6667;52.634;9.226;2023-04-03T15:02:42;10.10;99.90
13205;DHT22;6667;52.634;9.226;2023-04-03T15:05:11;9.90;99.90
13205;DHT22;6667;52.634;9.226;2023-04-03T15:07:41;9.70;99.90
13205;DHT22;6667;52.634;9.226;2023-04-03T15:10:16;9.90;99.90
13205;DHT22;6667;52.634;9.226;2023-04-03T15:12:45;10.10;99.90
13205;DHT22;6667;52.634;9.226;2023-04-03T15:15:13;9.70;99.90
13205;DHT22;6667;52.634;9.226;2023-04-03T15:17:40;9.80;99.90
13205;DHT22;6667;52.634;9.226;2023-04-03T15:20:12;9.70;99.90
13205;DHT22;6667;52.634;9.226;2023-04-03T15:22:40;9.30;99.90
13205;DHT22;6667;52.634;9.226;2023-04-03T15:25:08;9.30;99.90
13205;DHT22;6667;52.634;9.226;2023-04-03T15:27:36;9.60;99.90
13205;DHT22;6667;52.634;9.226;2023-04-03T15:30:03;9.60;99.90
13205;DHT22;6667;52.634;9.226;2023-04-03T15:32:31;9.50;99.90
13205;DHT22;6667;52.634;9.226;2023-04-03T15:34:59;9.40;99.90
13205;DHT22;6667;52.634;9.226;2023-04-03T15:37:25;9.20;99.90
13205;DHT22;6667;52.634;9.226;2023-04-03T15:39:53;9.50;99.90
13205;DHT22;6667;52.634;9.226;2023-04-03T15:42:20;9.60;99.90
13205;DHT22;6667;52.634;9.226;2023-04-03T15:44:46;9.80;99.90
13205;DHT22;6667;52.634;9.226;2023-04-03T15:47:13;9.90;99.90
13205;DHT22;6667;52.634;9.226;2023-04-03T15:49:40;9.60;99.90
13205;DHT22;6667;52.634;9.226;2023-04-03T15:52:07;9.60;99.90
13205;DHT22;6667;52.634;9.226;2023-04-03T15:54:35;9.60;99.90
13205;DHT22;6667;52.634;9.226;2023-04-03T15:57:03;9.80;99.90
13205;DHT22;6667;52.634;9.226;2023-04-03T15:59:30;9.70;99.90
13205;DHT22;6667;52.634;9.226;2023-04-03T16:01:58;9.70;99.90
13205;DHT22;6667;52.634;9.226;2023-04-03T16:04:26;9.50;99.90
13205;DHT22;6667;52.634;9.226;2023-04-03T16:06:53;9.50;99.90
13205;DHT22;6667;52.634;9.226;2023-04-03T16:09:19;9.30;99.90
13205;DHT22;6667;52.634;9.226;2023-04-03T16:11:46;9.20;99.90
13205;DHT22;6667;52.634;9.226;2023-04-03T16:14:14;9.20;99.90
13205;DHT22;6667;52.634;9.226;2023-04-03T16:16:40;9.00;99.90
13205;DHT22;6667;52.634;9.226;2023-04-03T16:19:07;8.70;99.90
13205;DHT22;6667;52.634;9.226;2023-04-03T16:21:35;8.70;99.90
13205;DHT22;6667;52.634;9.226;2023-04-03T16:24:02;8.70;99.90
13205;DHT22;6667;52.634;9.226;2023-04-03T16:26:29;8.80;99.90
13205;DHT22;6667;52.634;9.226;2023-04-03T16:28:55;8.90;99.90
13205;DHT22;6667;52.634;9.226;2023-04-03T16:31:24;8.70;99.90
13205;DHT22;6667;52.634;9.226;2023-04-03T16:33:51;8.80;99.90
13205;DHT22;6667;52.634;9.226;2023-04-03T16:36:18;8.70;99.90
13205;DHT22;6667;52.634;9.226;2023-04-03T16:38:44;8.80;99.90
13205;DHT22;6667;52.634;9.226;2023-04-03T16:41:11;8.90;99.90
13205;DHT22;6667;52.634;9.226;2023-04-03T16:43:38;9.00;99.90
13205;DHT22;6667;52.634;9.226;2023-04-03T16:46:05;9.00;99.90
13205;DHT22;6667;52.634;9.226;2023-04-03T16:48:33;8.90;99.90
13205;DHT22;6667;52.634;9.226;2023-04-03T16:51:00;8.90;99.90
13205;DHT22;6667;52.634;9.226;2023-04-03T16:53:27;8.80;99.90
13205;DHT22;6667;52.634;9.226;2023-04-03T16:55:54;8.60;99.90
13205;DHT22;6667;52.634;9.226;2023-04-03T16:58:23;8.60;99.90
13205;DHT22;6667;52.634;9.226;2023-04-03T17:00:49;8.40;99.90
13205;DHT22;6667;52.634;9.226;2023-04-03T17:03:19;8.40;99.90
13205;DHT22;6667;52.634;9.226;2023-04-03T17:05:48;8.40;99.90
13205;DHT22;6667;52.634;9.226;2023-04-03T17:08:16;8.40;99.90
13205;DHT22;6667;52.634;9.226;2023-04-03T17:10:43;8.30;99.90
13205;DHT22;6667;52.634;9.226;2023-04-03T17:13:10;8.10;99.90
13205;DHT22;6667;52.634;9.226;2023-04-03T17:15:37;8.00;99.90
13205;DHT22;6667;52.634;9.226;2023-04-03T17:18:03;7.90;99.90
13205;DHT22;6667;52.634;9.226;2023-04-03T17:20:30;7.80;99.90
13205;DHT22;6667;52.634;9.226;2023-04-03T17:23:00;7.70;99.90
13205;DHT22;6667;52.634;9.226;2023-04-03T17:25:27;7.70;99.90
13205;DHT22;6667;52.634;9.226;2023-04-03T17:27:53;7.70;99.90
13205;DHT22;6667;52.634;9.226;2023-04-03T17:30:21;7.70;99.90
13205;DHT22;6667;52.634;9.226;2023-04-03T17:32:48;7.60;99.90
13205;DHT22;6667;52.634;9.226;2023-04-03T17:35:14;7.60;99.90
13205;DHT22;6667;52.634;9.226;2023-04-03T17:37:41;7.50;99.90
13205;DHT22;6667;52.634;9.226;2023-04-03T17:40:10;7.40;99.90
13205;DHT22;6667;52.634;9.226;2023-04-03T17:42:38;7.30;99.90
13205;DHT22;6667;52.634;9.226;2023-04-03T17:45:06;7.10;99.90
13205;DHT22;6667;52.634;9.226;2023-04-03T17:47:33;7.20;99.90
13205;DHT22;6667;52.634;9.226;2023-04-03T17:49:59;7.10;99.90
13205;DHT22;6667;52.634;9.226;2023-04-03T17:52:26;7.10;99.90
13205;DHT22;6667;52.634;9.226;2023-04-03T17:54:53;7.10;99.90
13205;DHT22;6667;52.634;9.226;2023-04-03T17:57:21;7.00;99.90
13205;DHT22;6667;52.634;9.226;2023-04-03T17:59:48;6.90;99.90
13205;DHT22;6667;52.634;9.226;2023-04-03T18:02:15;6.80;99.90
13205;DHT22;6667;52.634;9.226;2023-04-03T18:04:42;6.70;99.90
13205;DHT22;6667;52.634;9.226;2023-04-03T18:07:08;6.80;99.90
13205;DHT22;6667;52.634;9.226;2023-04-03T18:09:36;6.90;99.90
13205;DHT22;6667;52.634;9.226;2023-04-03T18:12:06;7.00;99.90
13205;DHT22;6667;52.634;9.226;2023-04-03T18:14:35;7.00;99.90
13205;DHT22;6667;52.634;9.226;2023-04-03T18:17:03;7.00;99.90
13205;DHT22;6667;52.634;9.226;2023-04-03T18:19:29;7.00;99.90
13205;DHT22;6667;52.634;9.226;2023-04-03T18:21:58;6.90;99.90
13205;DHT22;6667;52.634;9.226;2023-04-03T18:24:26;6.80;99.90
13205;DHT22;6667;52.634;9.226;2023-04-03T18:26:56;6.70;99.90
13205;DHT22;6667;52.634;9.226;2023-04-03T18:29:24;6.60;99.90
13205;DHT22;6667;52.634;9.226;2023-04-03T18:31:54;6.50;99.90
13205;DHT22;6667;52.634;9.226;2023-04-03T18:34:22;6.50;99.90
13205;DHT22;6667;52.634;9.226;2023-04-03T18:36:48;6.30;99.90
13205;DHT22;6667;52.634;9.226;2023-04-03T18:39:16;6.30;99.90
13205;DHT22;6667;52.634;9.226;2023-04-03T18:41:43;6.20;99.90
13205;DHT22;6667;52.634;9.226;2023-04-03T18:44:12;6.10;99.90
13205;DHT22;6667;52.634;9.226;2023-04-03T18:46:41;6.10;99.90
13205;DHT22;6667;52.634;9.226;2023-04-03T18:49:10;6.00;99.90
13205;DHT22;6667;52.634;9.226;2023-04-03T18:51:37;5.80;99.90
13205;DHT22;6667;52.634;9.226;2023-04-03T18:54:04;5.80;99.90
13205;DHT22;6667;52.634;9.226;2023-04-03T18:56:33;5.70;99.90
13205;DHT22;6667;52.634;9.226;2023-04-03T18:59:00;5.70;99.90
13205;DHT22;6667;52.634;9.226;2023-04-03T19:01:27;5.60;99.90
13205;DHT22;6667;52.634;9.226;2023-04-03T19:03:54;5.50;99.90
13205;DHT22;6667;52.634;9.226;2023-04-03T19:06:21;5.30;99.90
13205;DHT22;6667;52.634;9.226;2023-04-03T19:08:49;5.30;99.90
13205;DHT22;6667;52.634;9.226;2023-04-03T19:11:16;5.30;99.90
13205;DHT22;6667;52.634;9.226;2023-04-03T19:13:43;5.30;99.90
13205;DHT22;6667;52.634;9.226;2023-04-03T19:16:11;5.20;99.90
13205;DHT22;6667;52.634;9.226;2023-04-03T19:18:38;5.20;99.90
13205;DHT22;6667;52.634;9.226;2023-04-03T19:21:05;5.10;99.90
13205;DHT22;6667;52.634;9.226;2023-04-03T19:23:34;5.00;99.90
13205;DHT22;6667;52.634;9.226;2023-04-03T19:26:03;4.80;99.90
13205;DHT22;6667;52.634;9.226;2023-04-03T19:28:31;4.70;99.90
13205;DHT22;6667;52.634;9.226;2023-04-03T19:30:59;4.60;99.90
13205;DHT22;6667;52.634;9.226;2023-04-03T19:33:27;4.60;99.90
13205;DHT22;6667;52.634;9.226;2023-04-03T19:35:54;4.50;99.90
13205;DHT22;6667;52.634;9.226;2023-04-03T19:38:21;4.40;99.90
13205;DHT22;6667;52.634;9.226;2023-04-03T19:40:49;4.40;99.90
13205;DHT22;6667;52.634;9.226;2023-04-03T19:43:16;4.30;99.90
13205;DHT22;6667;52.634;9.226;2023-04-03T19:45:43;4.30;99.90
13205;DHT22;6667;52.634;9.226;2023-04-03T19:48:11;4.20;99.90
13205;DHT22;6667;52.634;9.226;2023-04-03T19:50:39;4.30;99.90
13205;DHT22;6667;52.634;9.226;2023-04-03T19:53:06;4.20;99.90
13205;DHT22;6667;52.634;9.226;2023-04-03T19:55:35;4.20;99.90
13205;DHT22;6667;52.634;9.226;2023-04-03T19:58:04;4.10;99.90
13205;DHT22;6667;52.634;9.226;2023-04-03T20:00:31;4.20;99.90
13205;DHT22;6667;52.634;9.226;2023-04-03T20:02:59;4.10;99.90
13205;DHT22;6667;52.634;9.226;2023-04-03T20:05:26;4.10;99.90
13205;DHT22;6667;52.634;9.226;2023-04-03T20:07:53;4.00;99.90
13205;DHT22;6667;52.634;9.226;2023-04-03T20:10:20;4.00;99.90
13205;DHT22;6667;52.634;9.226;2023-04-03T20:12:48;4.00;99.90
13205;DHT22;6667;52.634;9.226;2023-04-03T20:15:17;3.90;99.90
13205;DHT22;6667;52.634;9.226;2023-04-03T20:17:44;3.90;99.90
13205;DHT22;6667;52.634;9.226;2023-04-03T20:20:11;3.90;99.90
13205;DHT22;6667;52.634;9.226;2023-04-03T20:22:39;3.80;99.90
13205;DHT22;6667;52.634;9.226;2023-04-03T20:25:08;3.80;99.90
13205;DHT22;6667;52.634;9.226;2023-04-03T20:27:36;3.70;99.90
13205;DHT22;6667;52.634;9.226;2023-04-03T20:30:06;3.70;99.90
13205;DHT22;6667;52.634;9.226;2023-04-03T20:32:37;3.70;99.90
13205;DHT22;6667;52.634;9.226;2023-04-03T20:35:06;3.70;99.90
13205;DHT22;6667;52.634;9.226;2023-04-03T20:37:33;3.70;99.90
13205;DHT22;6667;52.634;9.226;2023-04-03T20:40:00;3.50;99.90
13205;DHT22;6667;52.634;9.226;2023-04-03T20:42:27;3.40;99.90
13205;DHT22;6667;52.634;9.226;2023-04-03T20:44:54;3.50;99.90
13205;DHT22;6667;52.634;9.226;2023-04-03T20:47:21;3.50;99.90
13205;DHT22;6667;52.634;9.226;2023-04-03T20:49:51;3.50;99.90
13205;DHT22;6667;52.634;9.226;2023-04-03T20:52:18;3.50;99.90
13205;DHT22;6667;52.634;9.226;2023-04-03T20:54:45;3.30;99.90
13205;DHT22;6667;52.634;9.226;2023-04-03T20:57:12;3.30;99.90
13205;DHT22;6667;52.634;9.226;2023-04-03T20:59:40;3.30;99.90
13205;DHT22;6667;52.634;9.226;2023-04-03T21:02:07;3.30;99.90
13205;DHT22;6667;52.634;9.226;2023-04-03T21:04:37;3.20;99.90
13205;DHT22;6667;52.634;9.226;2023-04-03T21:21:28;2.70;99.90
13205;DHT22;6667;52.634;9.226;2023-04-03T21:24:04;2.80;99.90
13205;DHT22;6667;52.634;9.226;2023-04-03T21:26:32;2.80;99.90
13205;DHT22;6667;52.634;9.226;2023-04-03T21:29:00;2.80;99.90
13205;DHT22;6667;52.634;9.226;2023-04-03T21:31:51;2.80;99.90
13205;DHT22;6667;52.634;9.226;2023-04-03T21:34:20;2.70;99.90
13205;DHT22;6667;52.634;9.226;2023-04-03T21:36:50;2.70;99.90
13205;DHT22;6667;52.634;9.226;2023-04-03T21:39:17;2.70;99.90
13205;DHT22;6667;52.634;9.226;2023-04-03T21:41:44;2.60;99.90
13205;DHT22;6667;52.634;9.226;2023-04-03T21:44:11;2.60;99.90
13205;DHT22;6667;52.634;9.226;2023-04-03T21:46:38;2.60;99.90
13205;DHT22;6667;52.634;9.226;2023-04-03T21:49:05;2.50;99.90
13205;DHT22;6667;52.634;9.226;2023-04-03T21:51:33;2.50;99.90
13205;DHT22;6667;52.634;9.226;2023-04-03T21:54:00;2.50;99.90
13205;DHT22;6667;52.634;9.226;2023-04-03T21:56:26;2.40;99.90
13205;DHT22;6667;52.634;9.226;2023-04-03T21:58:56;2.40;99.90
13205;DHT22;6667;52.634;9.226;2023-04-03T22:01:22;2.30;99.90
13205;DHT22;6667;52.634;9.226;2023-04-03T22:03:49;2.30;99.90
13205;DHT22;6667;52.634;9.226;2023-04-03T22:06:16;2.30;99.90
13205;DHT22;6667;52.634;9.226;2023-04-03T22:08:45;2.20;99.90
13205;DHT22;6667;52.634;9.226;2023-04-03T22:11:12;2.20;99.90
13205;DHT22;6667;52.634;9.226;2023-04-03T22:13:40;2.10;99.90
13205;DHT22;6667;52.634;9.226;2023-04-03T22:16:08;2.10;99.90
13205;DHT22;6667;52.634;9.226;2023-04-03T22:18:35;2.00;99.90
13205;DHT22;6667;52.634;9.226;2023-04-03T22:21:03;2.00;99.90
13205;DHT22;6667;52.634;9.226;2023-04-03T22:23:30;1.90;99.90
13205;DHT22;6667;52.634;9.226;2023-04-03T22:25:59;1.90;99.90
13205;DHT22;6667;52.634;9.226;2023-04-03T22:28:27;1.90;99.90
13205;DHT22;6667;52.634;9.226;2023-04-03T22:30:54;1.80;99.90
13205;DHT22;6667;52.634;9.226;2023-04-03T22:33:21;1.80;99.90
13205;DHT22;6667;52.634;9.226;2023-04-03T22:35:48;1.80;99.90
13205;DHT22;6667;52.634;9.226;2023-04-03T22:38:16;1.80;99.90
13205;DHT22;6667;52.634;9.226;2023-04-03T22:40:43;1.70;99.90
13205;DHT22;6667;52.634;9.226;2023-04-03T22:43:11;1.70;99.90
13205;DHT22;6667;52.634;9.226;2023-04-03T22:45:45;1.70;99.90
13205;DHT22;6667;52.634;9.226;2023-04-03T22:48:12;1.60;99.90
13205;DHT22;6667;52.634;9.226;2023-04-03T22:50:39;1.60;99.90
13205;DHT22;6667;52.634;9.226;2023-04-03T22:53:06;1.50;99.90
